createdAt,value
2022-12-22T00:02:39.319Z,7.35
2022-12-22T00:05:35.615Z,7.25
2022-12-22T00:08:22.308Z,7.35
2022-12-22T00:11:08.630Z,7.32
2022-12-22T00:13:54.833Z,7.27
2022-12-22T00:16:42.509Z,7.22
2022-12-22T00:19:32.509Z,7.23
2022-12-22T00:22:19.973Z,7.25
2022-12-22T00:25:05.977Z,7.43
2022-12-22T00:27:52.064Z,7.50
2022-12-22T00:30:38.436Z,7.38
2022-12-22T00:33:24.480Z,7.44
2022-12-22T00:36:10.346Z,7.20
2022-12-22T00:38:56.202Z,7.35
2022-12-22T00:41:42.231Z,7.35
2022-12-22T00:44:28.257Z,7.42
2022-12-22T00:47:14.333Z,7.46
2022-12-22T00:50:03.860Z,7.43
2022-12-22T00:52:50.119Z,7.24
2022-12-22T00:55:38.972Z,7.29
2022-12-22T00:58:31.654Z,7.32
2022-12-22T01:01:17.704Z,7.44
2022-12-22T01:04:03.864Z,7.39
2022-12-22T01:06:50.993Z,7.19
2022-12-22T01:09:37.231Z,7.41
2022-12-22T01:12:28.186Z,7.10
2022-12-22T01:15:14.158Z,7.18
2022-12-22T01:18:00.211Z,7.21
2022-12-22T01:20:46.239Z,7.22
2022-12-22T01:23:31.955Z,7.19
2022-12-22T01:26:17.801Z,7.15
2022-12-22T01:29:03.925Z,7.27
2022-12-22T01:31:51.331Z,7.23
2022-12-22T01:34:37.602Z,7.37
2022-12-22T01:37:23.741Z,7.22
2022-12-22T01:40:09.624Z,7.20
2022-12-22T01:42:55.758Z,7.25
2022-12-22T01:45:51.537Z,7.44
2022-12-22T01:48:38.966Z,7.42
2022-12-22T01:51:30.247Z,7.36
2022-12-22T01:54:16.684Z,7.28
2022-12-22T01:57:03.288Z,7.27
2022-12-22T01:59:49.341Z,7.27
2022-12-22T02:02:36.326Z,7.40
2022-12-22T02:05:23.167Z,7.27
2022-12-22T02:08:18.388Z,7.22
2022-12-22T02:11:10.437Z,7.13
2022-12-22T02:13:56.306Z,7.08
2022-12-22T02:16:42.158Z,7.11
2022-12-22T02:19:27.955Z,7.19
2022-12-22T02:22:13.900Z,7.23
2022-12-22T02:25:04.432Z,7.24
2022-12-22T02:27:52.617Z,7.17
2022-12-22T02:30:38.588Z,7.08
2022-12-22T02:33:27.567Z,7.04
2022-12-22T02:36:35.128Z,7.21
2022-12-22T02:39:21.590Z,7.20
2022-12-22T02:42:15.183Z,7.21
2022-12-22T02:45:10.575Z,7.15
2022-12-22T02:47:59.939Z,7.11
2022-12-22T02:50:52.356Z,7.04
2022-12-22T02:53:39.355Z,6.94
2022-12-22T02:56:26.593Z,6.99
2022-12-22T02:59:13.210Z,7.06
2022-12-22T03:02:00.527Z,7.44
2022-12-22T03:04:46.281Z,7.69
2022-12-22T03:07:32.328Z,7.20
2022-12-22T03:10:18.352Z,7.08
2022-12-22T03:13:04.190Z,7.06
2022-12-22T03:15:50.639Z,6.99
2022-12-22T03:18:36.655Z,7.10
2022-12-22T03:21:22.518Z,7.12
2022-12-22T03:24:08.818Z,7.15
2022-12-22T03:26:36.475Z,7.40
2022-12-22T03:29:04.334Z,7.42
2022-12-22T03:31:32.114Z,7.43
2022-12-22T03:34:00.103Z,7.64
2022-12-22T03:36:27.893Z,7.64
2022-12-22T03:38:55.474Z,7.64
2022-12-22T03:41:41.212Z,7.69
2022-12-22T03:44:27.019Z,7.65
2022-12-22T03:46:54.516Z,7.75
2022-12-22T03:49:23.218Z,7.86
2022-12-22T03:51:51.499Z,7.71
2022-12-22T03:54:20.710Z,7.69
2022-12-22T03:56:48.993Z,7.57
2022-12-22T03:59:17.189Z,7.47
2022-12-22T04:01:49.183Z,7.54
2022-12-22T04:04:17.681Z,7.42
2022-12-22T04:06:46.124Z,7.40
2022-12-22T04:09:14.530Z,7.31
2022-12-22T04:12:00.533Z,7.22
2022-12-22T04:14:33.763Z,7.23
2022-12-22T04:17:02.744Z,7.12
2022-12-22T04:19:30.673Z,7.07
2022-12-22T04:21:58.683Z,7.06
2022-12-22T04:24:26.458Z,7.07
2022-12-22T04:26:54.187Z,7.09
2022-12-22T04:29:21.896Z,7.21
2022-12-22T04:31:49.549Z,7.14
2022-12-22T04:34:17.021Z,7.05
2022-12-22T04:36:44.547Z,7.13
2022-12-22T04:39:12.069Z,7.11
2022-12-22T04:41:40.056Z,7.23
2022-12-22T04:44:07.739Z,7.17
2022-12-22T04:46:35.373Z,7.18
2022-12-22T04:49:02.939Z,7.18
2022-12-22T04:51:30.623Z,7.25
2022-12-22T04:53:58.382Z,7.28
2022-12-22T04:56:25.900Z,7.48
2022-12-22T04:58:53.562Z,7.69
2022-12-22T05:01:21.511Z,7.50
2022-12-22T05:03:49.148Z,7.30
2022-12-22T05:06:16.714Z,7.18
2022-12-22T05:08:44.520Z,7.30
2022-12-22T05:11:12.270Z,7.28
2022-12-22T05:13:40.042Z,7.13
2022-12-22T05:16:09.874Z,7.13
2022-12-22T05:18:38.303Z,7.33
2022-12-22T05:21:11.243Z,7.33
2022-12-22T05:23:38.997Z,7.46
2022-12-22T05:26:06.807Z,7.41
2022-12-22T05:28:34.812Z,7.39
2022-12-22T05:31:06.616Z,7.28
2022-12-22T05:33:34.230Z,7.42
2022-12-22T05:36:01.961Z,7.40
2022-12-22T05:38:29.873Z,7.59
2022-12-22T05:41:03.580Z,7.60
2022-12-22T05:43:32.516Z,7.20
2022-12-22T05:46:04.755Z,7.33
2022-12-22T05:48:37.907Z,7.49
2022-12-22T05:51:06.983Z,7.77
2022-12-22T05:53:34.765Z,7.72
2022-12-22T05:56:02.483Z,7.40
2022-12-22T05:58:30.140Z,7.28
2022-12-22T06:00:58.680Z,7.50
2022-12-22T06:03:27.141Z,7.75
2022-12-22T06:05:55.142Z,7.82
2022-12-22T06:08:23.600Z,7.92
2022-12-22T06:10:51.694Z,8.06
2022-12-22T06:13:19.536Z,8.11
2022-12-22T06:15:48.418Z,7.93
2022-12-22T06:18:16.736Z,7.86
2022-12-22T06:20:46.094Z,7.83
2022-12-22T06:23:14.023Z,7.94
2022-12-22T06:25:41.822Z,8.02
2022-12-22T06:28:09.683Z,8.04
2022-12-22T06:30:37.342Z,7.98
2022-12-22T06:33:05.622Z,8.09
2022-12-22T06:35:33.184Z,8.06
2022-12-22T06:38:00.921Z,8.00
2022-12-22T06:40:28.222Z,8.01
2022-12-22T06:43:11.025Z,7.77
2022-12-22T06:45:42.741Z,7.83
2022-12-22T06:48:11.588Z,7.76
2022-12-22T06:50:39.774Z,7.86
2022-12-22T06:53:08.020Z,7.94
2022-12-22T06:55:36.185Z,7.79
2022-12-22T06:58:04.902Z,7.88
2022-12-22T07:00:33.244Z,7.74
2022-12-22T07:03:01.446Z,7.70
2022-12-22T07:05:32.098Z,7.50
2022-12-22T07:08:05.761Z,7.42
2022-12-22T07:10:54.631Z,7.34
2022-12-22T07:13:24.447Z,7.30
2022-12-22T07:16:00.052Z,7.40
2022-12-22T07:18:29.667Z,7.46
2022-12-22T07:20:57.449Z,7.23
2022-12-22T07:23:25.258Z,7.10
2022-12-22T07:25:53.205Z,7.55
2022-12-22T07:28:41.786Z,7.35
2022-12-22T07:31:40.696Z,7.25
2022-12-22T07:34:08.320Z,7.41
2022-12-22T07:36:54.619Z,7.41
2022-12-22T07:39:41.214Z,7.29
2022-12-22T07:42:45.739Z,7.44
2022-12-22T07:45:14.587Z,7.55
2022-12-22T07:47:43.068Z,7.70
2022-12-22T07:50:25.620Z,7.79
2022-12-22T07:53:11.535Z,7.65
2022-12-22T07:55:41.766Z,7.70
2022-12-22T07:58:28.020Z,7.64
2022-12-22T08:01:02.823Z,7.71
2022-12-22T08:03:49.196Z,7.49
2022-12-22T08:06:17.098Z,7.53
2022-12-22T08:08:45.126Z,7.56
2022-12-22T08:11:13.012Z,7.63
2022-12-22T08:14:01.552Z,7.65
2022-12-22T08:16:48.837Z,8.00
2022-12-22T08:19:16.616Z,8.12
2022-12-22T08:22:03.109Z,8.04
2022-12-22T08:24:49.347Z,7.80
2022-12-22T08:27:44.306Z,7.77
2022-12-22T08:30:30.455Z,7.79
2022-12-22T08:33:16.959Z,7.77
2022-12-22T08:36:08.094Z,8.17
2022-12-22T08:38:56.391Z,8.06
2022-12-22T08:41:51.557Z,7.91
2022-12-22T08:44:26.795Z,7.96
2022-12-22T08:46:55.443Z,7.87
2022-12-22T08:49:23.026Z,8.11
2022-12-22T08:51:51.138Z,8.49
2022-12-22T08:54:19.408Z,8.25
2022-12-22T08:56:47.532Z,8.45
2022-12-22T08:59:15.538Z,8.53
2022-12-22T09:01:44.923Z,8.54
2022-12-22T09:04:13.059Z,8.39
2022-12-22T09:06:41.641Z,8.47
2022-12-22T09:09:10.464Z,8.60
2022-12-22T09:11:38.358Z,8.80
2022-12-22T09:14:06.247Z,8.59
2022-12-22T09:16:34.227Z,8.80
2022-12-22T09:19:02.416Z,8.77
2022-12-22T09:21:31.110Z,8.67
2022-12-22T09:23:59.263Z,8.44
2022-12-22T09:26:28.099Z,8.25
2022-12-22T09:28:56.080Z,8.43
2022-12-22T09:31:25.182Z,8.42
2022-12-22T09:33:52.931Z,8.24
2022-12-22T09:36:22.465Z,8.30
2022-12-22T09:38:51.125Z,8.21
2022-12-22T09:41:20.592Z,8.52
2022-12-22T09:43:48.430Z,8.40
2022-12-22T09:46:29.795Z,8.33
2022-12-22T09:48:58.069Z,8.20
2022-12-22T09:51:27.382Z,8.32
2022-12-22T09:53:58.073Z,8.33
2022-12-22T09:56:27.439Z,8.46
2022-12-22T09:58:55.549Z,8.54
2022-12-22T10:01:23.165Z,8.50
2022-12-22T10:04:01.787Z,8.21
2022-12-22T10:06:34.805Z,8.31
2022-12-22T10:12:14.829Z,8.37
2022-12-22T10:14:43.929Z,8.35
2022-12-22T10:17:15.972Z,8.45
2022-12-22T10:19:44.011Z,8.75
2022-12-22T10:22:20.544Z,8.96
2022-12-22T10:24:48.211Z,8.81
2022-12-22T10:27:16.009Z,8.52
2022-12-22T10:29:43.808Z,8.94
2022-12-22T10:32:12.902Z,8.68
2022-12-22T10:35:00.635Z,8.88
2022-12-22T10:37:38.126Z,9.01
2022-12-22T10:40:16.145Z,8.80
2022-12-22T10:42:44.814Z,8.75
2022-12-22T10:45:19.754Z,8.81
2022-12-22T10:47:49.440Z,8.87
2022-12-22T10:50:18.097Z,8.54
2022-12-22T10:52:58.612Z,8.71
2022-12-22T10:55:28.842Z,8.89
2022-12-22T10:58:25.380Z,8.66
2022-12-22T11:01:03.897Z,8.48
2022-12-22T11:03:31.842Z,8.54
2022-12-22T11:06:01.067Z,8.60
2022-12-22T11:08:30.459Z,8.64
2022-12-22T11:11:04.189Z,9.06
2022-12-22T11:13:31.747Z,9.21
2022-12-22T11:16:22.886Z,9.13
2022-12-22T11:19:08.276Z,8.73
2022-12-22T11:21:47.586Z,8.69
2022-12-22T11:24:34.031Z,8.44
2022-12-22T11:27:19.721Z,8.60
2022-12-22T11:30:07.580Z,9.03
2022-12-22T11:32:37.919Z,9.19
2022-12-22T11:35:13.934Z,9.33
2022-12-22T11:37:41.701Z,8.79
2022-12-22T11:40:27.713Z,8.72
2022-12-22T11:43:02.155Z,8.87
2022-12-22T11:45:30.004Z,9.12
2022-12-22T11:48:01.000Z,9.31
2022-12-22T11:50:58.601Z,9.40
2022-12-22T11:53:19.185Z,9.11
2022-12-22T11:55:53.497Z,9.06
2022-12-22T11:58:43.732Z,8.97
2022-12-22T12:01:26.608Z,9.57
2022-12-22T12:03:54.371Z,9.76
2022-12-22T12:06:28.928Z,9.38
2022-12-22T12:08:56.531Z,9.19
2022-12-22T12:11:36.022Z,9.28
2022-12-22T12:14:18.508Z,9.70
2022-12-22T12:16:55.215Z,9.42
2022-12-22T12:19:28.610Z,9.46
2022-12-22T12:22:01.820Z,9.60
2022-12-22T12:24:41.990Z,9.57
2022-12-22T12:27:26.973Z,8.98
2022-12-22T12:32:52.945Z,8.92
2022-12-22T12:35:32.542Z,9.32
2022-12-22T12:38:47.892Z,9.61
2022-12-22T12:41:12.728Z,9.62
2022-12-22T12:43:41.747Z,9.69
2022-12-22T12:46:27.706Z,9.66
2022-12-22T12:48:56.503Z,9.70
2022-12-22T12:51:42.664Z,9.36
2022-12-22T12:54:43.060Z,9.09
2022-12-22T12:57:48.969Z,9.27
2022-12-22T13:00:47.870Z,9.52
2022-12-22T13:03:53.216Z,9.41
2022-12-22T13:06:32.561Z,9.46
2022-12-22T13:09:39.991Z,9.77
2022-12-22T13:14:58.733Z,9.85
2022-12-22T13:17:33.503Z,9.98
2022-12-22T13:20:02.517Z,9.96
2022-12-22T13:22:30.863Z,9.90
2022-12-22T13:25:02.555Z,9.73
2022-12-22T13:27:31.158Z,9.90
2022-12-22T13:29:59.988Z,9.78
2022-12-22T13:32:30.239Z,9.89
2022-12-22T13:37:50.472Z,9.84
2022-12-22T13:40:21.432Z,9.79
2022-12-22T13:42:52.121Z,9.77
2022-12-22T13:45:22.892Z,9.83
2022-12-22T13:47:51.303Z,9.67
2022-12-22T13:50:31.213Z,9.52
2022-12-22T13:52:59.435Z,9.64
2022-12-22T13:55:28.636Z,9.58
2022-12-22T13:58:00.630Z,9.37
2022-12-22T14:00:31.245Z,9.46
2022-12-22T14:02:59.121Z,9.37
2022-12-22T14:05:31.280Z,9.45
2022-12-22T14:08:06.352Z,9.47
2022-12-22T14:10:35.929Z,9.52
2022-12-22T14:13:06.831Z,9.55
2022-12-22T14:15:34.827Z,9.37
2022-12-22T14:18:03.057Z,9.42
2022-12-22T14:20:38.363Z,9.48
2022-12-22T14:23:08.656Z,9.53
2022-12-22T14:25:38.307Z,9.43
2022-12-22T14:28:09.148Z,9.34
2022-12-22T14:30:39.260Z,9.35
2022-12-22T14:33:18.837Z,9.30
2022-12-22T14:35:46.881Z,9.32
2022-12-22T14:38:20.485Z,9.24
2022-12-22T14:40:56.226Z,9.31
2022-12-22T14:43:28.846Z,9.30
2022-12-22T14:46:07.050Z,9.40
2022-12-22T14:48:37.871Z,9.36
2022-12-22T14:51:05.857Z,9.50
2022-12-22T14:53:39.826Z,9.13
2022-12-22T14:56:10.933Z,9.25
2022-12-22T14:58:39.728Z,9.21
2022-12-22T15:01:15.159Z,9.36
2022-12-22T15:03:43.693Z,9.56
2022-12-22T15:06:26.333Z,9.36
2022-12-22T15:08:55.616Z,9.29
2022-12-22T15:11:24.600Z,9.49
2022-12-22T15:13:52.438Z,9.34
2022-12-22T15:16:21.695Z,9.54
2022-12-22T15:18:49.632Z,9.54
2022-12-22T15:21:18.215Z,9.68
2022-12-22T15:23:46.243Z,9.62
2022-12-22T15:26:14.044Z,9.63
2022-12-22T15:28:41.642Z,9.54
2022-12-22T15:31:16.824Z,9.25
2022-12-22T15:33:44.952Z,9.04
2022-12-22T15:36:14.091Z,9.05
2022-12-22T15:38:41.828Z,8.99
2022-12-22T15:41:09.379Z,9.02
2022-12-22T15:43:57.112Z,9.03
2022-12-22T15:46:24.979Z,9.14
2022-12-22T15:48:52.877Z,9.41
2022-12-22T15:51:28.243Z,9.56
2022-12-22T15:53:56.802Z,9.41
2022-12-22T15:56:26.133Z,9.45
2022-12-22T15:58:54.008Z,9.43
2022-12-22T16:01:22.056Z,9.38
2022-12-22T16:03:49.907Z,9.28
2022-12-22T16:06:19.268Z,9.31
2022-12-22T16:08:49.726Z,9.16
2022-12-22T16:11:17.826Z,9.13
2022-12-22T16:13:45.970Z,9.16
2022-12-22T16:16:13.500Z,9.20
2022-12-22T16:18:41.027Z,9.11
2022-12-22T16:21:14.040Z,9.13
2022-12-22T16:23:43.183Z,9.11
2022-12-22T16:26:15.607Z,9.19
2022-12-22T16:28:43.697Z,9.12
2022-12-22T16:31:21.953Z,9.21
2022-12-22T16:33:50.356Z,9.28
2022-12-22T16:36:18.247Z,9.32
2022-12-22T16:38:47.867Z,9.57
2022-12-22T16:41:33.529Z,9.47
2022-12-22T16:46:47.273Z,9.37
2022-12-22T16:49:22.972Z,9.46
2022-12-22T16:51:55.210Z,9.53
2022-12-22T16:54:23.510Z,9.59
2022-12-22T16:56:52.177Z,9.63
2022-12-22T16:59:20.284Z,9.57
2022-12-22T17:01:55.538Z,9.47
2022-12-22T17:04:25.372Z,9.30
2022-12-22T17:06:54.895Z,9.47
2022-12-22T17:09:31.159Z,9.47
2022-12-22T17:11:59.439Z,9.28
2022-12-22T17:14:27.652Z,9.27
2022-12-22T17:16:55.465Z,9.51
2022-12-22T17:19:23.618Z,9.42
2022-12-22T17:21:53.603Z,9.45
2022-12-22T17:24:27.799Z,9.23
2022-12-22T17:27:03.375Z,9.23
2022-12-22T17:29:32.501Z,9.44
2022-12-22T17:32:00.419Z,9.49
2022-12-22T17:34:29.423Z,9.36
2022-12-22T17:37:00.487Z,9.14
2022-12-22T17:39:28.302Z,9.17
2022-12-22T17:41:57.541Z,9.31
2022-12-22T17:44:26.348Z,9.33
2022-12-22T17:46:55.525Z,9.43
2022-12-22T17:49:23.609Z,9.38
2022-12-22T17:51:51.745Z,9.22
2022-12-22T17:54:24.302Z,9.33
2022-12-22T17:56:52.550Z,9.15
2022-12-22T17:59:20.774Z,9.38
2022-12-22T18:01:48.694Z,9.39
2022-12-22T18:04:16.832Z,9.22
2022-12-22T18:06:45.370Z,9.15
2022-12-22T18:09:21.734Z,9.15
2022-12-22T18:11:49.427Z,9.17
2022-12-22T18:14:17.195Z,9.24
2022-12-22T18:16:45.076Z,8.92
2022-12-22T18:19:12.924Z,9.13
2022-12-22T18:21:40.992Z,9.08
2022-12-22T18:24:15.982Z,8.98
2022-12-22T18:26:43.999Z,8.94
2022-12-22T18:29:16.077Z,8.77
2022-12-22T18:31:44.601Z,8.88
2022-12-22T18:34:13.061Z,9.11
2022-12-22T18:36:42.784Z,9.27
2022-12-22T18:39:21.759Z,9.46
2022-12-22T18:41:49.695Z,9.18
2022-12-22T18:44:19.575Z,9.19
2022-12-22T18:46:47.739Z,9.30
2022-12-22T18:49:16.538Z,9.24
2022-12-22T18:51:45.170Z,9.13
2022-12-22T18:54:22.123Z,9.17
2022-12-22T18:56:51.794Z,9.13
2022-12-22T18:59:24.411Z,9.18
2022-12-22T19:01:52.948Z,9.05
2022-12-22T19:04:22.477Z,9.13
2022-12-22T19:06:51.469Z,9.07
2022-12-22T19:09:20.915Z,9.02
2022-12-22T19:11:49.031Z,9.12
2022-12-22T19:14:19.284Z,9.13
2022-12-22T19:16:47.797Z,9.17
2022-12-22T19:19:21.533Z,9.30
2022-12-22T19:21:50.423Z,9.27
2022-12-22T19:24:18.741Z,9.22
2022-12-22T19:26:46.377Z,9.35
2022-12-22T19:29:15.016Z,9.24
2022-12-22T19:31:43.703Z,9.36
2022-12-22T19:34:15.880Z,9.07
2022-12-22T19:36:43.787Z,9.23
2022-12-22T19:39:11.855Z,9.34
2022-12-22T19:41:45.371Z,9.20
2022-12-22T19:44:39.422Z,8.96
2022-12-22T19:47:15.839Z,8.91
2022-12-22T19:49:43.724Z,8.92
2022-12-22T19:52:11.585Z,8.72
2022-12-22T19:54:39.411Z,8.76
2022-12-22T19:57:08.558Z,8.74
2022-12-22T19:59:38.954Z,8.70
2022-12-22T20:02:19.433Z,8.69
2022-12-22T20:04:47.598Z,8.71
2022-12-22T20:07:19.414Z,8.96
2022-12-22T20:09:47.055Z,9.21
2022-12-22T20:12:21.337Z,9.18
2022-12-22T20:14:49.351Z,9.11
2022-12-22T20:17:17.267Z,9.26
2022-12-22T20:19:45.044Z,9.19
2022-12-22T20:22:16.485Z,8.92
2022-12-22T20:24:44.868Z,8.73
2022-12-22T20:27:22.738Z,8.84
2022-12-22T20:29:50.760Z,8.86
2022-12-22T20:32:25.437Z,8.81
2022-12-22T20:34:55.994Z,8.83
2022-12-22T20:37:25.915Z,8.97
2022-12-22T20:39:53.859Z,9.00
2022-12-22T20:42:22.816Z,8.92
2022-12-22T20:45:02.316Z,8.61
2022-12-22T20:47:33.654Z,8.73
2022-12-22T20:50:02.182Z,8.74
2022-12-22T20:52:29.989Z,8.69
2022-12-22T20:54:57.906Z,8.70
2022-12-22T20:57:26.862Z,8.90
2022-12-22T20:59:56.652Z,8.83
2022-12-22T21:02:28.200Z,8.76
2022-12-22T21:04:56.798Z,8.80
2022-12-22T21:07:24.884Z,8.91
2022-12-22T21:09:53.178Z,8.93
2022-12-22T21:12:21.209Z,9.05
2022-12-22T21:14:52.207Z,9.20
2022-12-22T21:17:20.062Z,9.20
2022-12-22T21:19:47.746Z,9.43
2022-12-22T21:22:17.089Z,9.24
2022-12-22T21:24:44.838Z,9.08
2022-12-22T21:27:17.522Z,9.12
2022-12-22T21:29:45.387Z,9.35
2022-12-22T21:32:14.689Z,9.45
2022-12-22T21:34:42.783Z,9.32
2022-12-22T21:37:16.528Z,9.19
2022-12-22T21:39:45.032Z,9.12
2022-12-22T21:42:15.305Z,9.15
2022-12-22T21:44:44.897Z,8.99
2022-12-22T21:47:14.009Z,9.10
2022-12-22T21:49:41.849Z,9.22
2022-12-22T21:52:09.431Z,9.00
2022-12-22T21:54:37.407Z,8.94
2022-12-22T21:57:06.019Z,9.27
2022-12-22T21:59:33.732Z,9.22
2022-12-22T22:02:03.970Z,9.30
2022-12-22T22:04:32.881Z,9.27
2022-12-22T22:07:00.860Z,9.37
2022-12-22T22:09:28.912Z,9.09
2022-12-22T22:12:16.635Z,9.04
2022-12-22T22:14:44.392Z,9.08
2022-12-22T22:17:12.259Z,8.91
2022-12-22T22:19:40.327Z,9.06
2022-12-22T22:22:09.081Z,9.06
2022-12-22T22:24:37.100Z,9.11
2022-12-22T22:27:05.020Z,8.89
2022-12-22T22:29:32.878Z,8.91
2022-12-22T22:32:00.656Z,8.80
2022-12-22T22:34:28.267Z,8.87
2022-12-22T22:36:56.222Z,8.96
2022-12-22T22:39:24.312Z,9.05
2022-12-22T22:41:52.481Z,9.13
2022-12-22T22:44:21.295Z,9.25
2022-12-22T22:46:49.802Z,9.02
2022-12-22T22:49:21.380Z,9.07
2022-12-22T22:51:52.185Z,9.08
2022-12-22T22:54:20.081Z,8.92
2022-12-22T22:56:47.732Z,9.10
2022-12-22T22:59:15.406Z,8.89
2022-12-22T23:01:43.469Z,8.88
2022-12-22T23:04:11.893Z,8.73
2022-12-22T23:06:41.835Z,8.77
2022-12-22T23:09:09.936Z,8.87
2022-12-22T23:11:38.150Z,9.04
2022-12-22T23:14:05.893Z,9.02
2022-12-22T23:16:38.161Z,8.88
2022-12-22T23:19:07.124Z,8.97
2022-12-22T23:21:35.424Z,8.84
2022-12-22T23:24:06.015Z,9.03
2022-12-22T23:26:34.444Z,9.35
2022-12-22T23:29:03.915Z,9.48
2022-12-22T23:31:32.817Z,9.32
2022-12-22T23:34:01.010Z,9.01
2022-12-22T23:36:29.071Z,9.03
2022-12-22T23:38:56.876Z,9.03
2022-12-22T23:41:25.054Z,9.17
2022-12-22T23:43:53.546Z,9.28
2022-12-22T23:46:21.654Z,9.14
2022-12-22T23:48:53.157Z,9.15
2022-12-22T23:51:21.583Z,9.02
2022-12-22T23:53:49.718Z,9.05
2022-12-22T23:56:17.597Z,8.96
2022-12-22T23:58:48.205Z,9.26
